sensor_id;sensor_type;location;lat;lon;timestamp;P1;durP1;ratioP1;P2;durP2;ratioP2
68238;SDS011;55056;47.792;8.724;2022-10-22T00:02:15;23.30;;;10.33;;
68238;SDS011;55056;47.792;8.724;2022-10-22T00:04:44;24.23;;;10.63;;
68238;SDS011;55056;47.792;8.724;2022-10-22T00:07:10;21.00;;;10.65;;
68238;SDS011;55056;47.792;8.724;2022-10-22T00:09:35;24.43;;;10.57;;
68238;SDS011;55056;47.792;8.724;2022-10-22T00:12:00;21.87;;;9.97;;
68238;SDS011;55056;47.792;8.724;2022-10-22T00:14:26;23.60;;;10.60;;
68238;SDS011;55056;47.792;8.724;2022-10-22T00:16:51;24.13;;;11.10;;
68238;SDS011;55056;47.792;8.724;2022-10-22T00:19:16;21.10;;;9.60;;
68238;SDS011;55056;47.792;8.724;2022-10-22T00:21:42;21.13;;;10.30;;
68238;SDS011;55056;47.792;8.724;2022-10-22T00:24:07;21.27;;;10.07;;
68238;SDS011;55056;47.792;8.724;2022-10-22T00:26:33;21.23;;;9.60;;
68238;SDS011;55056;47.792;8.724;2022-10-22T00:28:58;20.97;;;9.90;;
68238;SDS011;55056;47.792;8.724;2022-10-22T00:31:23;22.67;;;9.90;;
68238;SDS011;55056;47.792;8.724;2022-10-22T00:33:49;20.80;;;9.87;;
68238;SDS011;55056;47.792;8.724;2022-10-22T00:36:15;22.23;;;10.33;;
68238;SDS011;55056;47.792;8.724;2022-10-22T00:38:41;20.77;;;9.18;;
68238;SDS011;55056;47.792;8.724;2022-10-22T00:41:07;21.52;;;9.80;;
68238;SDS011;55056;47.792;8.724;2022-10-22T00:43:32;19.52;;;9.23;;
68238;SDS011;55056;47.792;8.724;2022-10-22T00:45:58;20.10;;;8.97;;
68238;SDS011;55056;47.792;8.724;2022-10-22T00:48:27;19.23;;;9.20;;
68238;SDS011;55056;47.792;8.724;2022-10-22T00:51:00;18.63;;;8.88;;
68238;SDS011;55056;47.792;8.724;2022-10-22T00:54:00;20.50;;;9.73;;
68238;SDS011;55056;47.792;8.724;2022-10-22T00:56:20;19.40;;;9.13;;
68238;SDS011;55056;47.792;8.724;2022-10-22T00:58:48;18.33;;;8.68;;
68238;SDS011;55056;47.792;8.724;2022-10-22T01:01:15;18.60;;;9.13;;
68238;SDS011;55056;47.792;8.724;2022-10-22T01:03:41;18.27;;;8.80;;
68238;SDS011;55056;47.792;8.724;2022-10-22T01:06:06;17.00;;;8.17;;
68238;SDS011;55056;47.792;8.724;2022-10-22T01:08:45;17.77;;;8.43;;
68238;SDS011;55056;47.792;8.724;2022-10-22T01:16:31;17.13;;;8.30;;
68238;SDS011;55056;47.792;8.724;2022-10-22T01:19:07;18.70;;;8.80;;
68238;SDS011;55056;47.792;8.724;2022-10-22T01:21:44;17.50;;;8.57;;
68238;SDS011;55056;47.792;8.724;2022-10-22T01:31:59;15.63;;;7.78;;
68238;SDS011;55056;47.792;8.724;2022-10-22T01:34:25;16.98;;;8.27;;
68238;SDS011;55056;47.792;8.724;2022-10-22T01:36:52;16.13;;;7.90;;
68238;SDS011;55056;47.792;8.724;2022-10-22T01:39:18;15.85;;;7.95;;
68238;SDS011;55056;47.792;8.724;2022-10-22T01:41:45;16.87;;;8.13;;
68238;SDS011;55056;47.792;8.724;2022-10-22T01:57:00;15.20;;;7.57;;
68238;SDS011;55056;47.792;8.724;2022-10-22T02:04:28;14.93;;;7.53;;
68238;SDS011;55056;47.792;8.724;2022-10-22T02:06:56;14.55;;;7.13;;
68238;SDS011;55056;47.792;8.724;2022-10-22T02:09:23;14.63;;;7.22;;
68238;SDS011;55056;47.792;8.724;2022-10-22T02:11:50;13.67;;;7.03;;
68238;SDS011;55056;47.792;8.724;2022-10-22T02:14:15;15.33;;;7.47;;
68238;SDS011;55056;47.792;8.724;2022-10-22T02:16:43;13.93;;;7.30;;
68238;SDS011;55056;47.792;8.724;2022-10-22T02:19:14;13.98;;;6.90;;
68238;SDS011;55056;47.792;8.724;2022-10-22T02:21:42;15.07;;;7.22;;
68238;SDS011;55056;47.792;8.724;2022-10-22T02:24:07;14.02;;;6.82;;
68238;SDS011;55056;47.792;8.724;2022-10-22T02:26:45;14.10;;;7.57;;
68238;SDS011;55056;47.792;8.724;2022-10-22T02:29:20;13.85;;;6.88;;
68238;SDS011;55056;47.792;8.724;2022-10-22T02:31:49;13.32;;;6.63;;
68238;SDS011;55056;47.792;8.724;2022-10-22T02:34:18;12.88;;;6.90;;
68238;SDS011;55056;47.792;8.724;2022-10-22T02:36:43;13.88;;;7.07;;
68238;SDS011;55056;47.792;8.724;2022-10-22T02:39:09;13.83;;;6.50;;
68238;SDS011;55056;47.792;8.724;2022-10-22T02:41:35;12.57;;;6.43;;
68238;SDS011;55056;47.792;8.724;2022-10-22T02:44:05;12.57;;;6.53;;
68238;SDS011;55056;47.792;8.724;2022-10-22T02:46:31;14.27;;;6.65;;
68238;SDS011;55056;47.792;8.724;2022-10-22T02:48:57;12.27;;;6.40;;
68238;SDS011;55056;47.792;8.724;2022-10-22T02:51:22;12.50;;;6.70;;
68238;SDS011;55056;47.792;8.724;2022-10-22T02:53:48;13.43;;;6.50;;
68238;SDS011;55056;47.792;8.724;2022-10-22T02:56:13;12.10;;;6.23;;
68238;SDS011;55056;47.792;8.724;2022-10-22T02:58:38;13.47;;;6.20;;
68238;SDS011;55056;47.792;8.724;2022-10-22T03:01:04;13.70;;;6.67;;
68238;SDS011;55056;47.792;8.724;2022-10-22T03:03:29;12.70;;;6.20;;
68238;SDS011;55056;47.792;8.724;2022-10-22T03:05:55;12.77;;;6.20;;
68238;SDS011;55056;47.792;8.724;2022-10-22T03:08:20;12.50;;;6.30;;
68238;SDS011;55056;47.792;8.724;2022-10-22T03:10:45;13.23;;;6.40;;
68238;SDS011;55056;47.792;8.724;2022-10-22T03:13:11;12.70;;;6.30;;
68238;SDS011;55056;47.792;8.724;2022-10-22T03:15:36;12.10;;;5.97;;
68238;SDS011;55056;47.792;8.724;2022-10-22T03:18:02;12.40;;;6.27;;
68238;SDS011;55056;47.792;8.724;2022-10-22T03:20:27;12.77;;;6.23;;
68238;SDS011;55056;47.792;8.724;2022-10-22T03:22:52;12.60;;;6.17;;
68238;SDS011;55056;47.792;8.724;2022-10-22T03:25:20;11.77;;;6.20;;
68238;SDS011;55056;47.792;8.724;2022-10-22T03:27:46;12.85;;;6.03;;
68238;SDS011;55056;47.792;8.724;2022-10-22T03:30:12;11.73;;;5.75;;
68238;SDS011;55056;47.792;8.724;2022-10-22T03:32:38;11.80;;;5.80;;
68238;SDS011;55056;47.792;8.724;2022-10-22T03:35:04;10.73;;;5.60;;
68238;SDS011;55056;47.792;8.724;2022-10-22T03:37:29;11.50;;;5.60;;
68238;SDS011;55056;47.792;8.724;2022-10-22T03:39:55;11.50;;;5.63;;
68238;SDS011;55056;47.792;8.724;2022-10-22T03:42:21;10.97;;;5.70;;
68238;SDS011;55056;47.792;8.724;2022-10-22T03:44:47;11.63;;;5.75;;
68238;SDS011;55056;47.792;8.724;2022-10-22T03:47:12;10.20;;;5.50;;
68238;SDS011;55056;47.792;8.724;2022-10-22T03:49:38;10.27;;;5.43;;
68238;SDS011;55056;47.792;8.724;2022-10-22T03:52:04;11.30;;;5.67;;
68238;SDS011;55056;47.792;8.724;2022-10-22T03:54:29;10.50;;;5.53;;
68238;SDS011;55056;47.792;8.724;2022-10-22T03:56:55;11.53;;;5.67;;
68238;SDS011;55056;47.792;8.724;2022-10-22T03:59:20;11.13;;;5.60;;
68238;SDS011;55056;47.792;8.724;2022-10-22T04:01:46;11.27;;;5.50;;
68238;SDS011;55056;47.792;8.724;2022-10-22T04:04:11;10.23;;;5.20;;
68238;SDS011;55056;47.792;8.724;2022-10-22T04:06:36;10.77;;;5.23;;
68238;SDS011;55056;47.792;8.724;2022-10-22T04:09:02;11.10;;;5.37;;
68238;SDS011;55056;47.792;8.724;2022-10-22T04:11:27;10.60;;;5.47;;
68238;SDS011;55056;47.792;8.724;2022-10-22T04:13:53;10.67;;;5.10;;
68238;SDS011;55056;47.792;8.724;2022-10-22T04:16:19;10.27;;;5.20;;
68238;SDS011;55056;47.792;8.724;2022-10-22T04:18:45;10.27;;;5.20;;
68238;SDS011;55056;47.792;8.724;2022-10-22T04:21:12;10.90;;;5.30;;
68238;SDS011;55056;47.792;8.724;2022-10-22T04:23:38;9.67;;;4.90;;
68238;SDS011;55056;47.792;8.724;2022-10-22T04:26:05;10.70;;;5.20;;
68238;SDS011;55056;47.792;8.724;2022-10-22T04:28:31;9.52;;;4.80;;
68238;SDS011;55056;47.792;8.724;2022-10-22T04:30:56;9.80;;;5.00;;
68238;SDS011;55056;47.792;8.724;2022-10-22T04:33:21;8.97;;;4.80;;
68238;SDS011;55056;47.792;8.724;2022-10-22T04:35:47;10.03;;;4.73;;
68238;SDS011;55056;47.792;8.724;2022-10-22T04:38:13;9.97;;;4.90;;
68238;SDS011;55056;47.792;8.724;2022-10-22T04:40:38;9.83;;;4.77;;
68238;SDS011;55056;47.792;8.724;2022-10-22T04:43:04;9.33;;;4.87;;
68238;SDS011;55056;47.792;8.724;2022-10-22T04:45:31;10.03;;;4.80;;
68238;SDS011;55056;47.792;8.724;2022-10-22T04:47:56;10.07;;;4.90;;
68238;SDS011;55056;47.792;8.724;2022-10-22T04:50:22;8.93;;;4.50;;
68238;SDS011;55056;47.792;8.724;2022-10-22T04:52:47;10.20;;;4.70;;
68238;SDS011;55056;47.792;8.724;2022-10-22T04:55:12;9.30;;;4.47;;
68238;SDS011;55056;47.792;8.724;2022-10-22T04:57:38;10.47;;;4.40;;
68238;SDS011;55056;47.792;8.724;2022-10-22T05:00:03;10.37;;;4.80;;
68238;SDS011;55056;47.792;8.724;2022-10-22T05:02:29;10.30;;;4.85;;
68238;SDS011;55056;47.792;8.724;2022-10-22T05:04:54;9.00;;;4.60;;
68238;SDS011;55056;47.792;8.724;2022-10-22T05:07:20;10.53;;;4.33;;
68238;SDS011;55056;47.792;8.724;2022-10-22T05:09:45;9.33;;;4.53;;
68238;SDS011;55056;47.792;8.724;2022-10-22T05:12:10;10.40;;;4.47;;
68238;SDS011;55056;47.792;8.724;2022-10-22T05:14:36;9.70;;;4.53;;
68238;SDS011;55056;47.792;8.724;2022-10-22T05:17:01;9.37;;;4.67;;
68238;SDS011;55056;47.792;8.724;2022-10-22T05:19:27;11.07;;;4.67;;
68238;SDS011;55056;47.792;8.724;2022-10-22T05:21:57;10.35;;;4.45;;
68238;SDS011;55056;47.792;8.724;2022-10-22T05:24:23;10.03;;;4.47;;
68238;SDS011;55056;47.792;8.724;2022-10-22T05:26:49;11.57;;;4.50;;
68238;SDS011;55056;47.792;8.724;2022-10-22T05:29:15;9.60;;;4.22;;
68238;SDS011;55056;47.792;8.724;2022-10-22T05:31:40;9.67;;;4.50;;
68238;SDS011;55056;47.792;8.724;2022-10-22T05:34:05;9.00;;;4.00;;
68238;SDS011;55056;47.792;8.724;2022-10-22T05:36:31;10.33;;;4.40;;
68238;SDS011;55056;47.792;8.724;2022-10-22T05:38:56;9.10;;;4.33;;
68238;SDS011;55056;47.792;8.724;2022-10-22T05:41:22;9.13;;;4.20;;
68238;SDS011;55056;47.792;8.724;2022-10-22T05:43:48;9.05;;;4.40;;
68238;SDS011;55056;47.792;8.724;2022-10-22T05:46:15;9.50;;;4.47;;
68238;SDS011;55056;47.792;8.724;2022-10-22T05:48:41;9.02;;;4.20;;
68238;SDS011;55056;47.792;8.724;2022-10-22T05:51:07;8.53;;;4.17;;
68238;SDS011;55056;47.792;8.724;2022-10-22T05:53:33;8.97;;;4.17;;
68238;SDS011;55056;47.792;8.724;2022-10-22T05:55:59;8.43;;;4.10;;
68238;SDS011;55056;47.792;8.724;2022-10-22T05:58:26;9.98;;;4.13;;
68238;SDS011;55056;47.792;8.724;2022-10-22T06:00:51;7.90;;;4.10;;
68238;SDS011;55056;47.792;8.724;2022-10-22T06:03:17;10.77;;;4.10;;
68238;SDS011;55056;47.792;8.724;2022-10-22T06:05:42;9.73;;;3.90;;
68238;SDS011;55056;47.792;8.724;2022-10-22T06:08:09;8.87;;;3.90;;
68238;SDS011;55056;47.792;8.724;2022-10-22T06:10:35;9.10;;;4.00;;
68238;SDS011;55056;47.792;8.724;2022-10-22T06:13:01;9.33;;;4.30;;
68238;SDS011;55056;47.792;8.724;2022-10-22T06:15:27;8.70;;;4.13;;
68238;SDS011;55056;47.792;8.724;2022-10-22T06:18:18;8.48;;;3.72;;
68238;SDS011;55056;47.792;8.724;2022-10-22T06:20:44;7.93;;;3.73;;
68238;SDS011;55056;47.792;8.724;2022-10-22T06:23:09;8.00;;;4.17;;
68238;SDS011;55056;47.792;8.724;2022-10-22T06:25:35;8.37;;;3.90;;
68238;SDS011;55056;47.792;8.724;2022-10-22T06:28:00;8.90;;;4.10;;
68238;SDS011;55056;47.792;8.724;2022-10-22T06:30:25;7.53;;;3.70;;
68238;SDS011;55056;47.792;8.724;2022-10-22T06:32:51;8.60;;;4.13;;
68238;SDS011;55056;47.792;8.724;2022-10-22T06:35:16;7.67;;;3.70;;
68238;SDS011;55056;47.792;8.724;2022-10-22T06:37:42;7.63;;;3.57;;
68238;SDS011;55056;47.792;8.724;2022-10-22T06:40:07;9.57;;;4.03;;
68238;SDS011;55056;47.792;8.724;2022-10-22T06:42:33;7.70;;;3.60;;
68238;SDS011;55056;47.792;8.724;2022-10-22T06:44:58;8.10;;;3.53;;
68238;SDS011;55056;47.792;8.724;2022-10-22T06:47:24;8.80;;;3.60;;
68238;SDS011;55056;47.792;8.724;2022-10-22T06:49:49;7.70;;;3.70;;
68238;SDS011;55056;47.792;8.724;2022-10-22T06:52:15;9.50;;;3.80;;
68238;SDS011;55056;47.792;8.724;2022-10-22T06:54:40;9.10;;;3.90;;
68238;SDS011;55056;47.792;8.724;2022-10-22T06:57:06;7.07;;;3.50;;
68238;SDS011;55056;47.792;8.724;2022-10-22T06:59:31;7.20;;;3.33;;
68238;SDS011;55056;47.792;8.724;2022-10-22T07:01:56;9.80;;;4.13;;
68238;SDS011;55056;47.792;8.724;2022-10-22T07:04:22;8.70;;;4.13;;
68238;SDS011;55056;47.792;8.724;2022-10-22T07:06:47;11.23;;;5.00;;
68238;SDS011;55056;47.792;8.724;2022-10-22T07:09:12;11.60;;;6.30;;
68238;SDS011;55056;47.792;8.724;2022-10-22T07:11:42;9.90;;;5.20;;
68238;SDS011;55056;47.792;8.724;2022-10-22T07:14:08;7.72;;;4.30;;
68238;SDS011;55056;47.792;8.724;2022-10-22T07:16:34;7.97;;;4.00;;
68238;SDS011;55056;47.792;8.724;2022-10-22T07:19:00;8.67;;;3.87;;
68238;SDS011;55056;47.792;8.724;2022-10-22T07:21:25;7.33;;;4.27;;
68238;SDS011;55056;47.792;8.724;2022-10-22T07:23:50;8.57;;;4.30;;
68238;SDS011;55056;47.792;8.724;2022-10-22T07:26:16;9.10;;;4.63;;
68238;SDS011;55056;47.792;8.724;2022-10-22T07:28:44;7.13;;;4.15;;
68238;SDS011;55056;47.792;8.724;2022-10-22T07:31:13;9.65;;;4.85;;
68238;SDS011;55056;47.792;8.724;2022-10-22T07:33:39;9.63;;;5.68;;
68238;SDS011;55056;47.792;8.724;2022-10-22T07:36:05;9.03;;;3.27;;
68238;SDS011;55056;47.792;8.724;2022-10-22T07:38:32;8.43;;;2.92;;
68238;SDS011;55056;47.792;8.724;2022-10-22T07:40:58;43.13;;;14.13;;
68238;SDS011;55056;47.792;8.724;2022-10-22T07:43:25;93.13;;;26.17;;
68238;SDS011;55056;47.792;8.724;2022-10-22T07:45:51;132.73;;;35.85;;
68238;SDS011;55056;47.792;8.724;2022-10-22T07:48:25;215.32;;;55.70;;
68238;SDS011;55056;47.792;8.724;2022-10-22T07:50:51;282.63;;;70.47;;
68238;SDS011;55056;47.792;8.724;2022-10-22T07:53:17;321.20;;;83.77;;
68238;SDS011;55056;47.792;8.724;2022-10-22T07:55:42;338.20;;;87.87;;
68238;SDS011;55056;47.792;8.724;2022-10-22T07:58:07;314.77;;;86.50;;
68238;SDS011;55056;47.792;8.724;2022-10-22T08:00:33;266.60;;;70.83;;
68238;SDS011;55056;47.792;8.724;2022-10-22T08:02:58;234.10;;;62.03;;
68238;SDS011;55056;47.792;8.724;2022-10-22T08:05:24;204.23;;;54.90;;
68238;SDS011;55056;47.792;8.724;2022-10-22T08:07:49;175.77;;;47.57;;
68238;SDS011;55056;47.792;8.724;2022-10-22T08:10:15;192.67;;;51.17;;
68238;SDS011;55056;47.792;8.724;2022-10-22T08:12:40;179.47;;;48.60;;
68238;SDS011;55056;47.792;8.724;2022-10-22T08:15:06;167.73;;;48.10;;
68238;SDS011;55056;47.792;8.724;2022-10-22T08:17:32;173.73;;;48.38;;
68238;SDS011;55056;47.792;8.724;2022-10-22T08:19:57;173.23;;;47.23;;
68238;SDS011;55056;47.792;8.724;2022-10-22T08:22:22;155.23;;;44.70;;
68238;SDS011;55056;47.792;8.724;2022-10-22T08:24:48;144.93;;;41.97;;
68238;SDS011;55056;47.792;8.724;2022-10-22T08:27:14;130.50;;;37.67;;
68238;SDS011;55056;47.792;8.724;2022-10-22T08:29:40;123.40;;;37.77;;
68238;SDS011;55056;47.792;8.724;2022-10-22T08:32:05;54.67;;;17.03;;
68238;SDS011;55056;47.792;8.724;2022-10-22T08:34:31;43.00;;;13.90;;
68238;SDS011;55056;47.792;8.724;2022-10-22T08:36:56;36.57;;;11.53;;
68238;SDS011;55056;47.792;8.724;2022-10-22T08:39:22;45.87;;;14.43;;
68238;SDS011;55056;47.792;8.724;2022-10-22T08:41:57;29.17;;;9.57;;
68238;SDS011;55056;47.792;8.724;2022-10-22T08:49:33;15.77;;;5.32;;
68238;SDS011;55056;47.792;8.724;2022-10-22T08:51:59;17.35;;;5.55;;
68238;SDS011;55056;47.792;8.724;2022-10-22T08:57:26;9.90;;;4.50;;
68238;SDS011;55056;47.792;8.724;2022-10-22T08:59:55;11.00;;;4.13;;
68238;SDS011;55056;47.792;8.724;2022-10-22T09:04:53;14.73;;;6.13;;
68238;SDS011;55056;47.792;8.724;2022-10-22T09:07:22;5.68;;;2.42;;
68238;SDS011;55056;47.792;8.724;2022-10-22T09:09:48;7.87;;;3.00;;
68238;SDS011;55056;47.792;8.724;2022-10-22T09:12:15;6.75;;;2.30;;
68238;SDS011;55056;47.792;8.724;2022-10-22T09:14:41;6.03;;;2.10;;
68238;SDS011;55056;47.792;8.724;2022-10-22T09:22:22;4.97;;;1.63;;
68238;SDS011;55056;47.792;8.724;2022-10-22T09:24:57;5.35;;;2.00;;
68238;SDS011;55056;47.792;8.724;2022-10-22T09:27:27;5.88;;;1.85;;
68238;SDS011;55056;47.792;8.724;2022-10-22T09:29:53;4.40;;;1.88;;
68238;SDS011;55056;47.792;8.724;2022-10-22T09:32:18;6.07;;;1.63;;
68238;SDS011;55056;47.792;8.724;2022-10-22T09:34:44;5.17;;;1.50;;
68238;SDS011;55056;47.792;8.724;2022-10-22T09:37:10;4.57;;;1.60;;
68238;SDS011;55056;47.792;8.724;2022-10-22T09:39:37;4.23;;;1.30;;
68238;SDS011;55056;47.792;8.724;2022-10-22T09:42:03;5.07;;;1.35;;
68238;SDS011;55056;47.792;8.724;2022-10-22T09:44:28;4.30;;;1.40;;
68238;SDS011;55056;47.792;8.724;2022-10-22T09:46:56;6.75;;;1.40;;
68238;SDS011;55056;47.792;8.724;2022-10-22T09:49:22;4.30;;;1.30;;
68238;SDS011;55056;47.792;8.724;2022-10-22T09:51:49;3.67;;;1.20;;
68238;SDS011;55056;47.792;8.724;2022-10-22T09:54:17;4.40;;;1.30;;
68238;SDS011;55056;47.792;8.724;2022-10-22T09:57:03;4.40;;;1.27;;
68238;SDS011;55056;47.792;8.724;2022-10-22T09:59:30;3.75;;;1.25;;
68238;SDS011;55056;47.792;8.724;2022-10-22T10:02:19;4.97;;;1.30;;
68238;SDS011;55056;47.792;8.724;2022-10-22T10:04:47;3.22;;;1.20;;
68238;SDS011;55056;47.792;8.724;2022-10-22T10:07:16;4.47;;;1.00;;
68238;SDS011;55056;47.792;8.724;2022-10-22T10:09:42;4.20;;;1.17;;
68238;SDS011;55056;47.792;8.724;2022-10-22T10:20:18;3.38;;;1.08;;
68238;SDS011;55056;47.792;8.724;2022-10-22T10:30:31;3.70;;;1.10;;
68238;SDS011;55056;47.792;8.724;2022-10-22T10:33:17;4.90;;;1.20;;
68238;SDS011;55056;47.792;8.724;2022-10-22T10:35:48;4.55;;;0.90;;
